createdAt,value
2019-05-26T00:00:05.714Z,19.70
2019-05-26T00:02:34.192Z,19.70
2019-05-26T00:05:02.719Z,19.80
2019-05-26T00:07:31.299Z,19.70
2019-05-26T00:09:59.844Z,19.70
2019-05-26T00:12:28.288Z,19.60
2019-05-26T00:14:56.803Z,19.60
2019-05-26T00:17:25.350Z,19.60
2019-05-26T00:19:53.865Z,19.60
2019-05-26T00:22:22.342Z,19.60
2019-05-26T00:24:50.904Z,19.50
2019-05-26T00:27:19.518Z,19.50
2019-05-26T00:29:48.204Z,19.50
2019-05-26T00:32:16.888Z,19.50
2019-05-26T00:34:45.473Z,19.50
2019-05-26T00:37:14.039Z,19.40
2019-05-26T00:39:42.454Z,19.40
2019-05-26T00:42:11.031Z,19.40
2019-05-26T00:44:39.495Z,19.40
2019-05-26T00:47:07.983Z,19.40
2019-05-26T00:49:36.551Z,19.30
2019-05-26T00:52:05.036Z,19.40
2019-05-26T00:54:33.564Z,19.30
2019-05-26T00:57:02.017Z,19.30
2019-05-26T00:59:30.590Z,19.30
2019-05-26T01:01:59.174Z,19.20
2019-05-26T01:04:27.814Z,19.20
2019-05-26T01:06:56.723Z,19.20
2019-05-26T01:09:25.326Z,19.20
2019-05-26T01:11:53.826Z,19.20
2019-05-26T01:14:22.310Z,19.20
2019-05-26T01:16:50.812Z,19.20
2019-05-26T01:19:19.263Z,19.20
2019-05-26T01:21:47.810Z,19.10
2019-05-26T01:24:16.270Z,19.20
2019-05-26T01:26:44.790Z,19.20
2019-05-26T01:29:13.341Z,19.20
2019-05-26T01:31:42.000Z,19.20
2019-05-26T01:34:10.503Z,19.20
2019-05-26T01:36:39.092Z,19.10
2019-05-26T01:39:08.189Z,19.20
2019-05-26T01:41:36.818Z,19.20
2019-05-26T01:44:05.292Z,19.10
2019-05-26T01:46:39.243Z,19.10
2019-05-26T01:49:07.795Z,19.10
2019-05-26T01:51:36.279Z,19.10
2019-05-26T01:54:04.745Z,19.10
2019-05-26T01:56:33.291Z,19.20
2019-05-26T01:59:01.790Z,19.10
2019-05-26T02:01:30.303Z,19.10
2019-05-26T02:03:58.931Z,19.10
2019-05-26T02:06:27.438Z,19.20
2019-05-26T02:08:55.910Z,19.10
2019-05-26T02:11:24.387Z,19.20
2019-05-26T02:13:52.867Z,19.10
2019-05-26T02:16:21.443Z,19.10
2019-05-26T02:18:49.875Z,19.10
2019-05-26T02:21:18.335Z,19.10
2019-05-26T02:23:46.843Z,19.00
2019-05-26T02:26:17.100Z,19.00
2019-05-26T02:28:45.639Z,19.00
2019-05-26T02:31:14.123Z,19.00
2019-05-26T02:33:42.569Z,19.00
2019-05-26T02:36:11.046Z,19.00
2019-05-26T02:38:57.435Z,18.90
2019-05-26T02:41:09.867Z,18.90
2019-05-26T02:43:38.331Z,18.90
2019-05-26T02:46:06.928Z,18.90
2019-05-26T02:48:35.366Z,18.90
2019-05-26T02:51:03.890Z,18.90
2019-05-26T02:53:32.419Z,18.90
2019-05-26T02:56:00.961Z,18.80
2019-05-26T02:58:29.515Z,18.80
2019-05-26T03:12:06.162Z,18.70
2019-05-26T03:14:34.885Z,18.80
2019-05-26T03:17:03.442Z,18.70
2019-05-26T03:19:34.035Z,18.70
2019-05-26T03:22:02.487Z,18.70
2019-05-26T03:24:31.099Z,18.70
2019-05-26T03:26:59.611Z,18.70
2019-05-26T03:29:28.081Z,18.70
2019-05-26T03:31:56.669Z,18.70
2019-05-26T03:34:25.145Z,18.60
2019-05-26T03:36:53.606Z,18.70
2019-05-26T03:39:39.660Z,18.60
2019-05-26T03:41:52.381Z,18.60
2019-05-26T03:44:20.860Z,18.60
2019-05-26T03:46:49.320Z,18.50
2019-05-26T03:49:17.864Z,18.50
2019-05-26T03:51:46.343Z,18.50
2019-05-26T03:54:14.990Z,18.50
2019-05-26T03:56:43.587Z,18.50
2019-05-26T03:59:12.277Z,18.40
2019-05-26T04:01:44.769Z,18.40
2019-05-26T04:04:13.233Z,18.30
2019-05-26T04:06:41.807Z,18.30
2019-05-26T04:09:10.313Z,18.40
2019-05-26T04:11:38.815Z,18.40
2019-05-26T04:14:07.960Z,18.50
2019-05-26T04:16:36.471Z,18.50
2019-05-26T04:19:04.911Z,18.40
2019-05-26T04:21:33.392Z,18.40
2019-05-26T04:24:01.920Z,18.50
2019-05-26T04:26:30.634Z,18.50
2019-05-26T04:28:59.151Z,18.40
2019-05-26T04:31:27.664Z,18.30
2019-05-26T04:33:56.118Z,18.40
2019-05-26T04:36:24.714Z,18.40
2019-05-26T04:38:53.312Z,18.30
2019-05-26T04:41:21.750Z,18.30
2019-05-26T04:43:50.233Z,18.30
2019-05-26T04:46:18.711Z,18.30
2019-05-26T04:48:47.191Z,18.30
2019-05-26T04:51:15.672Z,18.20
2019-05-26T04:53:44.151Z,18.30
2019-05-26T04:56:12.630Z,18.30
2019-05-26T04:58:41.285Z,18.30
2019-05-26T05:01:09.808Z,18.30
2019-05-26T05:03:38.299Z,18.20
2019-05-26T05:06:06.764Z,18.20
2019-05-26T05:08:35.242Z,18.20
2019-05-26T05:11:03.743Z,18.10
2019-05-26T05:13:32.315Z,18.10
2019-05-26T05:16:00.938Z,18.20
2019-05-26T05:18:29.501Z,18.30
2019-05-26T05:20:58.099Z,18.40
2019-05-26T05:23:26.550Z,18.30
2019-05-26T05:25:55.141Z,18.30
2019-05-26T05:28:23.773Z,18.30
2019-05-26T05:30:52.245Z,18.20
2019-05-26T05:33:20.731Z,18.30
2019-05-26T05:35:49.347Z,18.30
2019-05-26T05:38:17.831Z,18.40
2019-05-26T05:40:59.123Z,18.50
2019-05-26T05:43:16.598Z,18.50
2019-05-26T05:45:45.238Z,18.60
2019-05-26T05:48:13.821Z,18.70
2019-05-26T05:50:42.450Z,18.80
2019-05-26T05:53:11.049Z,18.80
2019-05-26T05:55:39.604Z,18.90
2019-05-26T05:58:08.254Z,18.90
2019-05-26T06:00:36.899Z,18.90
2019-05-26T06:03:05.346Z,18.90
2019-05-26T06:05:33.818Z,18.80
2019-05-26T06:08:02.371Z,18.80
2019-05-26T06:10:30.883Z,18.80
2019-05-26T06:12:59.430Z,18.90
2019-05-26T06:15:27.871Z,18.90
2019-05-26T06:17:56.451Z,18.90
2019-05-26T06:20:24.908Z,19.00
2019-05-26T06:22:53.551Z,19.10
2019-05-26T06:25:22.152Z,19.10
2019-05-26T06:27:50.755Z,19.10
2019-05-26T06:30:19.327Z,19.20
2019-05-26T06:32:47.810Z,19.30
2019-05-26T06:35:16.299Z,19.30
2019-05-26T06:37:44.776Z,19.30
2019-05-26T06:40:13.447Z,19.30
2019-05-26T06:42:42.047Z,19.40
2019-05-26T06:45:10.525Z,19.30
2019-05-26T06:47:39.222Z,19.30
2019-05-26T06:50:08.450Z,19.30
2019-05-26T06:52:36.917Z,19.30
2019-05-26T06:55:06.272Z,19.40
2019-05-26T06:57:34.720Z,19.40
2019-05-26T07:00:04.094Z,19.40
2019-05-26T07:02:32.575Z,19.40
2019-05-26T07:05:01.096Z,19.50
2019-05-26T07:07:29.747Z,19.50
2019-05-26T07:09:58.310Z,19.50
2019-05-26T07:12:26.825Z,19.50
2019-05-26T07:15:01.521Z,19.60
2019-05-26T07:17:29.963Z,19.60
2019-05-26T07:19:58.463Z,19.60
2019-05-26T07:22:27.141Z,19.60
2019-05-26T07:24:56.651Z,19.60
2019-05-26T07:27:25.196Z,19.60
2019-05-26T07:29:53.864Z,19.70
2019-05-26T07:32:22.507Z,19.80
2019-05-26T07:34:50.986Z,19.80
2019-05-26T07:37:19.561Z,19.90
2019-05-26T07:39:48.095Z,20.00
2019-05-26T07:42:26.013Z,20.20
2019-05-26T07:44:54.572Z,20.10
2019-05-26T07:47:23.103Z,20.20
2019-05-26T07:49:53.256Z,20.20
2019-05-26T07:52:22.222Z,20.20
2019-05-26T07:54:50.880Z,20.30
2019-05-26T07:57:19.452Z,20.40
2019-05-26T07:59:48.022Z,20.40
2019-05-26T08:02:16.665Z,20.50
2019-05-26T08:04:45.127Z,20.60
2019-05-26T08:07:13.744Z,20.70
2019-05-26T08:09:42.312Z,20.80
2019-05-26T08:12:24.884Z,20.80
2019-05-26T08:14:40.908Z,20.90
2019-05-26T08:17:09.534Z,20.90
2019-05-26T08:19:38.101Z,20.90
2019-05-26T08:22:06.596Z,21.00
2019-05-26T08:24:35.479Z,21.00
2019-05-26T08:27:04.331Z,21.10
2019-05-26T08:29:33.040Z,21.30
2019-05-26T08:32:01.521Z,21.30
2019-05-26T08:34:30.079Z,21.40
2019-05-26T08:36:58.619Z,21.40
2019-05-26T08:39:27.488Z,21.50
2019-05-26T08:41:55.960Z,21.60
2019-05-26T08:44:24.590Z,21.80
2019-05-26T08:46:53.274Z,21.80
2019-05-26T08:49:21.735Z,21.90
2019-05-26T08:51:50.208Z,22.00
2019-05-26T08:54:20.119Z,22.10
2019-05-26T08:56:48.801Z,22.10
2019-05-26T08:59:17.311Z,22.20
2019-05-26T09:01:45.769Z,22.20
2019-05-26T09:04:14.488Z,22.20
2019-05-26T09:06:42.972Z,22.30
2019-05-26T09:09:11.456Z,22.30
2019-05-26T09:11:40.031Z,22.40
2019-05-26T09:14:08.578Z,22.40
2019-05-26T09:16:37.207Z,22.40
2019-05-26T09:19:05.672Z,22.50
2019-05-26T09:21:34.207Z,22.50
2019-05-26T09:24:02.908Z,22.60
2019-05-26T09:26:31.593Z,22.70
2019-05-26T09:29:00.191Z,22.70
2019-05-26T09:31:28.828Z,22.80
2019-05-26T09:33:57.450Z,22.80
2019-05-26T09:36:26.094Z,22.80
2019-05-26T09:38:54.676Z,22.80
2019-05-26T09:41:23.191Z,22.80
2019-05-26T09:43:51.803Z,22.90
2019-05-26T09:46:20.373Z,22.90
2019-05-26T09:48:49.009Z,22.90
2019-05-26T09:51:17.617Z,23.00
2019-05-26T09:54:00.866Z,23.00
2019-05-26T09:56:18.095Z,23.00
2019-05-26T09:58:46.679Z,23.00
2019-05-26T10:01:15.480Z,23.10
2019-05-26T10:03:44.527Z,23.00
2019-05-26T10:06:13.097Z,23.00
2019-05-26T10:08:41.723Z,22.90
2019-05-26T10:11:10.351Z,23.10
2019-05-26T10:13:38.831Z,23.00
2019-05-26T10:16:07.301Z,23.10
2019-05-26T10:18:35.879Z,23.20
2019-05-26T10:21:04.430Z,23.30
2019-05-26T10:23:32.974Z,23.40
2019-05-26T10:26:01.464Z,23.50
2019-05-26T10:28:29.972Z,23.50
2019-05-26T10:30:58.574Z,23.60
2019-05-26T10:33:27.051Z,23.60
2019-05-26T10:35:55.534Z,23.60
2019-05-26T10:38:24.274Z,23.80
2019-05-26T10:40:52.753Z,23.80
2019-05-26T10:43:21.307Z,23.80
2019-05-26T10:45:49.930Z,23.80
2019-05-26T10:48:18.408Z,23.90
2019-05-26T10:50:47.031Z,24.00
2019-05-26T10:53:15.637Z,23.90
2019-05-26T10:55:44.366Z,23.90
2019-05-26T10:58:12.854Z,23.90
2019-05-26T11:00:42.143Z,23.90
2019-05-26T11:03:10.680Z,24.00
2019-05-26T11:05:39.273Z,23.90
2019-05-26T11:08:08.384Z,24.10
2019-05-26T11:10:36.948Z,24.20
2019-05-26T11:13:05.681Z,24.30
2019-05-26T11:15:34.360Z,24.30
2019-05-26T11:18:02.878Z,24.40
2019-05-26T11:20:31.399Z,24.40
2019-05-26T11:23:00.230Z,24.50
2019-05-26T11:25:28.777Z,24.40
2019-05-26T11:27:57.395Z,24.40
2019-05-26T11:30:26.654Z,24.40
2019-05-26T11:32:59.686Z,24.40
2019-05-26T11:35:28.612Z,24.40
2019-05-26T11:37:57.056Z,24.50
2019-05-26T11:40:26.316Z,24.50
2019-05-26T11:42:55.116Z,24.60
2019-05-26T11:45:25.448Z,24.50
2019-05-26T11:47:54.072Z,24.60
2019-05-26T11:50:24.358Z,24.60
2019-05-26T11:52:53.038Z,24.60
2019-05-26T11:55:22.054Z,24.40
2019-05-26T11:57:52.282Z,24.30
2019-05-26T12:00:20.922Z,24.40
2019-05-26T12:02:51.007Z,24.40
2019-05-26T12:05:20.857Z,24.20
2019-05-26T12:07:49.614Z,24.30
2019-05-26T12:10:18.246Z,24.30
2019-05-26T12:12:47.039Z,24.30
2019-05-26T12:15:16.040Z,24.40
2019-05-26T12:17:47.189Z,24.40
2019-05-26T12:20:16.082Z,24.40
2019-05-26T12:22:48.557Z,24.20
2019-05-26T12:25:17.221Z,24.20
2019-05-26T12:27:45.971Z,24.10
2019-05-26T12:30:16.155Z,24.30
2019-05-26T12:32:44.788Z,24.30
2019-05-26T12:35:17.006Z,24.20
2019-05-26T12:37:48.267Z,24.10
2019-05-26T12:40:15.668Z,24.00
2019-05-26T12:42:44.382Z,23.90
2019-05-26T12:45:15.403Z,23.90
2019-05-26T12:47:43.921Z,23.90
2019-05-26T12:50:12.541Z,23.90
2019-05-26T12:52:42.927Z,23.90
2019-05-26T12:55:11.549Z,24.00
2019-05-26T12:57:40.184Z,24.20
2019-05-26T13:00:10.187Z,24.20
2019-05-26T13:02:40.376Z,24.20
2019-05-26T13:05:10.850Z,24.20
2019-05-26T13:07:39.735Z,24.40
2019-05-26T13:10:08.631Z,24.40
2019-05-26T13:12:37.387Z,24.40
2019-05-26T13:15:09.655Z,24.50
2019-05-26T13:17:38.119Z,24.70
2019-05-26T13:20:07.357Z,24.70
2019-05-26T13:22:36.035Z,24.60
2019-05-26T13:25:07.912Z,24.60
2019-05-26T13:27:36.482Z,24.70
2019-05-26T13:30:20.246Z,24.70
2019-05-26T13:32:49.445Z,24.60
2019-05-26T13:35:18.844Z,24.60
2019-05-26T13:37:47.359Z,24.70
2019-05-26T13:40:15.857Z,24.60
2019-05-26T13:42:44.594Z,24.70
2019-05-26T13:45:22.354Z,24.70
2019-05-26T13:47:43.961Z,24.60
2019-05-26T13:50:13.953Z,24.50
2019-05-26T13:52:42.839Z,24.50
2019-05-26T13:55:11.352Z,24.50
2019-05-26T13:57:39.948Z,24.60
2019-05-26T14:00:09.193Z,24.60
2019-05-26T14:02:37.827Z,24.60
2019-05-26T14:05:08.459Z,24.50
2019-05-26T14:07:37.109Z,24.50
2019-05-26T14:10:06.027Z,24.40
2019-05-26T14:12:34.578Z,24.40
2019-05-26T14:15:03.404Z,24.40
2019-05-26T14:17:32.214Z,24.30
2019-05-26T14:20:00.843Z,24.40
2019-05-26T14:22:29.425Z,24.40
2019-05-26T14:24:57.878Z,24.40
2019-05-26T14:27:26.338Z,24.50
2019-05-26T14:29:55.178Z,24.40
2019-05-26T14:32:23.802Z,24.40
2019-05-26T14:34:52.276Z,24.30
2019-05-26T14:37:20.772Z,24.40
2019-05-26T14:39:50.056Z,24.40
2019-05-26T14:42:18.739Z,24.20
2019-05-26T14:44:47.275Z,24.00
2019-05-26T14:47:16.622Z,24.10
2019-05-26T14:49:45.233Z,24.20
2019-05-26T14:52:13.842Z,24.20
2019-05-26T14:54:42.388Z,24.30
2019-05-26T14:57:10.998Z,24.40
2019-05-26T14:59:39.776Z,24.30
2019-05-26T15:02:08.402Z,24.20
2019-05-26T15:04:36.986Z,24.30
2019-05-26T15:07:05.467Z,24.30
2019-05-26T15:09:34.158Z,24.30
2019-05-26T15:12:02.844Z,24.30
2019-05-26T15:14:31.307Z,24.30
2019-05-26T15:16:59.869Z,24.30
2019-05-26T15:19:28.408Z,24.30
2019-05-26T15:21:56.915Z,24.30
2019-05-26T15:24:25.379Z,24.40
2019-05-26T15:26:53.837Z,24.30
2019-05-26T15:29:22.479Z,24.20
2019-05-26T15:31:50.935Z,24.20
2019-05-26T15:34:19.401Z,24.20
2019-05-26T15:36:47.990Z,24.30
2019-05-26T15:39:16.412Z,24.30
2019-05-26T15:41:45.027Z,24.30
2019-05-26T15:44:13.533Z,24.40
2019-05-26T15:46:42.050Z,24.30
2019-05-26T15:49:10.495Z,24.30
2019-05-26T15:51:39.050Z,24.30
2019-05-26T15:54:07.514Z,24.10
2019-05-26T15:56:36.222Z,24.10
2019-05-26T15:59:04.938Z,23.90
2019-05-26T16:01:33.522Z,23.80
2019-05-26T16:04:01.992Z,23.80
2019-05-26T16:06:30.487Z,23.80
2019-05-26T16:08:59.019Z,23.90
2019-05-26T16:11:27.544Z,24.00
2019-05-26T16:13:56.148Z,24.00
2019-05-26T16:16:32.456Z,24.10
2019-05-26T16:18:54.949Z,24.00
2019-05-26T16:21:28.063Z,24.00
2019-05-26T16:23:53.790Z,24.00
2019-05-26T16:26:22.308Z,23.90
2019-05-26T16:28:50.820Z,24.00
2019-05-26T16:31:19.302Z,23.90
2019-05-26T16:33:47.884Z,23.90
2019-05-26T16:36:16.364Z,23.70
2019-05-26T16:38:44.851Z,23.50
2019-05-26T16:41:13.333Z,23.40
2019-05-26T16:43:41.774Z,23.30
2019-05-26T16:46:10.239Z,23.10
2019-05-26T16:48:38.727Z,23.00
2019-05-26T16:51:07.243Z,23.00
2019-05-26T16:53:35.924Z,23.00
2019-05-26T16:56:04.583Z,23.00
2019-05-26T16:58:33.091Z,22.80
2019-05-26T17:01:01.587Z,22.80
2019-05-26T17:03:30.228Z,22.80
2019-05-26T17:06:07.474Z,22.80
2019-05-26T17:08:28.862Z,22.80
2019-05-26T17:10:57.395Z,22.80
2019-05-26T17:13:25.861Z,23.00
2019-05-26T17:15:57.323Z,23.00
2019-05-26T17:18:25.918Z,23.10
2019-05-26T17:20:54.623Z,23.20
2019-05-26T17:23:23.097Z,23.20
2019-05-26T17:25:51.570Z,23.30
2019-05-26T17:28:20.476Z,23.40
2019-05-26T17:30:48.970Z,23.40
2019-05-26T17:33:17.455Z,23.50
2019-05-26T17:35:45.953Z,23.50
2019-05-26T17:38:14.515Z,23.50
2019-05-26T17:40:43.038Z,23.50
2019-05-26T17:43:11.564Z,23.40
2019-05-26T17:45:40.139Z,23.40
2019-05-26T17:48:08.653Z,23.40
2019-05-26T17:50:37.102Z,23.40
2019-05-26T17:53:05.586Z,23.30
2019-05-26T17:55:34.031Z,23.30
2019-05-26T17:58:02.502Z,23.20
2019-05-26T18:00:31.046Z,23.10
2019-05-26T18:02:59.495Z,23.10
2019-05-26T18:05:28.035Z,23.10
2019-05-26T18:07:56.563Z,22.90
2019-05-26T18:10:25.047Z,23.00
2019-05-26T18:12:53.627Z,22.90
2019-05-26T18:15:22.234Z,22.90
2019-05-26T18:17:50.792Z,22.90
2019-05-26T18:20:19.254Z,22.80
2019-05-26T18:22:47.736Z,22.70
2019-05-26T18:25:16.215Z,22.90
2019-05-26T18:27:44.957Z,22.70
2019-05-26T18:30:13.491Z,22.80
2019-05-26T18:32:42.028Z,22.80
2019-05-26T18:35:10.576Z,22.80
2019-05-26T18:37:39.113Z,22.80
2019-05-26T18:40:07.892Z,22.80
2019-05-26T18:42:36.408Z,22.70
2019-05-26T18:45:08.766Z,22.60
2019-05-26T18:47:37.288Z,22.70
2019-05-26T18:50:06.464Z,22.70
2019-05-26T18:52:35.014Z,22.70
2019-05-26T18:55:03.530Z,22.50
2019-05-26T18:57:32.026Z,22.50
2019-05-26T19:00:00.479Z,22.60
2019-05-26T19:02:28.923Z,22.60
2019-05-26T19:04:57.544Z,22.50
2019-05-26T19:07:26.014Z,22.40
2019-05-26T19:09:54.454Z,22.40
2019-05-26T19:12:22.937Z,22.20
2019-05-26T19:14:51.520Z,22.10
2019-05-26T19:17:20.367Z,22.00
2019-05-26T19:19:48.906Z,22.00
2019-05-26T19:22:17.402Z,22.00
2019-05-26T19:24:45.903Z,22.00
2019-05-26T19:27:14.347Z,21.90
2019-05-26T19:29:42.930Z,21.90
2019-05-26T19:32:11.398Z,21.90
2019-05-26T19:34:42.747Z,21.90
2019-05-26T19:37:11.311Z,22.00
2019-05-26T19:39:39.798Z,21.90
2019-05-26T19:42:08.277Z,21.90
2019-05-26T19:44:38.376Z,21.90
2019-05-26T19:47:06.842Z,21.80
2019-05-26T19:49:35.284Z,21.80
2019-05-26T19:52:03.836Z,21.70
2019-05-26T19:54:32.500Z,21.70
2019-05-26T19:57:01.019Z,21.70
2019-05-26T19:59:29.458Z,21.70
2019-05-26T20:01:57.987Z,21.70
2019-05-26T20:04:26.589Z,21.70
2019-05-26T20:06:55.059Z,21.80
2019-05-26T20:09:23.581Z,21.80
2019-05-26T20:11:52.354Z,21.70
2019-05-26T20:14:21.062Z,21.70
2019-05-26T20:16:49.594Z,21.60
2019-05-26T20:19:18.128Z,21.60
2019-05-26T20:21:46.838Z,21.70
2019-05-26T20:24:15.570Z,21.60
2019-05-26T20:26:44.106Z,21.70
2019-05-26T20:29:12.625Z,21.60
2019-05-26T20:31:41.238Z,21.60
2019-05-26T20:34:09.799Z,21.70
2019-05-26T20:36:38.414Z,21.60
2019-05-26T20:39:09.159Z,21.60
2019-05-26T20:41:37.666Z,21.60
2019-05-26T20:44:06.273Z,21.50
2019-05-26T20:46:34.735Z,21.50
2019-05-26T20:49:03.483Z,21.60
2019-05-26T20:51:32.075Z,21.70
2019-05-26T20:54:00.511Z,21.70
2019-05-26T20:56:29.096Z,21.60
2019-05-26T20:58:57.556Z,21.60
2019-05-26T21:01:26.246Z,21.60
2019-05-26T21:03:54.959Z,21.50
2019-05-26T21:06:23.789Z,21.40
2019-05-26T21:08:53.765Z,21.40
2019-05-26T21:11:22.356Z,21.30
2019-05-26T21:13:50.836Z,21.40
2019-05-26T21:16:19.416Z,21.40
2019-05-26T21:18:47.898Z,21.40
2019-05-26T21:21:16.437Z,21.30
2019-05-26T21:23:45.070Z,21.30
2019-05-26T21:26:13.531Z,21.20
2019-05-26T21:28:42.100Z,21.10
2019-05-26T21:31:10.697Z,21.00
2019-05-26T21:33:39.395Z,21.00
2019-05-26T21:36:08.577Z,21.00
2019-05-26T21:38:37.344Z,20.90
2019-05-26T21:41:05.842Z,21.00
2019-05-26T21:43:34.317Z,20.90
2019-05-26T21:46:02.842Z,20.90
2019-05-26T21:48:34.617Z,20.80
2019-05-26T21:51:01.511Z,20.80
2019-05-26T21:53:29.942Z,20.70
2019-05-26T21:55:58.458Z,20.80
2019-05-26T21:58:27.067Z,20.60
2019-05-26T22:00:55.540Z,20.50
2019-05-26T22:03:24.222Z,20.50
2019-05-26T22:05:52.686Z,20.50
2019-05-26T22:08:21.123Z,20.50
2019-05-26T22:10:49.898Z,20.50
2019-05-26T22:13:18.609Z,20.40
2019-05-26T22:15:47.174Z,20.40
2019-05-26T22:18:15.658Z,20.40
2019-05-26T22:20:44.171Z,20.40
2019-05-26T22:23:12.724Z,20.40
2019-05-26T22:25:41.185Z,20.50
2019-05-26T22:28:09.727Z,20.40
2019-05-26T22:30:38.271Z,20.40
2019-05-26T22:33:08.089Z,20.40
2019-05-26T22:35:38.071Z,20.40
2019-05-26T22:38:06.771Z,20.40
2019-05-26T22:40:35.253Z,20.30
2019-05-26T22:43:03.706Z,20.30
2019-05-26T22:45:32.546Z,20.20
2019-05-26T22:48:01.134Z,20.20
2019-05-26T22:50:29.703Z,20.20
2019-05-26T22:52:59.758Z,20.30
2019-05-26T22:55:28.239Z,20.20
2019-05-26T22:57:56.935Z,20.30
2019-05-26T23:00:25.518Z,20.30
2019-05-26T23:02:54.327Z,20.30
2019-05-26T23:05:22.786Z,20.20
2019-05-26T23:07:51.286Z,20.30
2019-05-26T23:10:19.727Z,20.20
2019-05-26T23:12:48.193Z,20.20
2019-05-26T23:15:16.671Z,20.20
2019-05-26T23:17:45.127Z,20.10
2019-05-26T23:20:13.675Z,20.20
2019-05-26T23:22:42.131Z,20.20
2019-05-26T23:25:10.635Z,20.20
2019-05-26T23:27:39.114Z,20.10
2019-05-26T23:30:07.562Z,20.00
2019-05-26T23:32:36.080Z,20.00
2019-05-26T23:35:06.456Z,19.90
2019-05-26T23:37:34.954Z,19.90
2019-05-26T23:40:04.726Z,20.00
2019-05-26T23:42:33.283Z,20.00
2019-05-26T23:45:01.786Z,20.10
2019-05-26T23:47:30.245Z,19.90
2019-05-26T23:49:58.703Z,19.90
2019-05-26T23:52:27.266Z,19.90
2019-05-26T23:54:55.703Z,19.90
2019-05-26T23:57:24.224Z,19.90
2019-05-26T23:59:52.738Z,19.90
